New Shoreham, Rhode Island
Current Conditions -  °F | °C
As of 11:55 AM on Saturday 22 Nov 2014 (Local Time) from KBID Reporting Station
Clear Clear  
Wind Chill:   Ceiling: Unl
Heat Index:   Visibility: 10mi
Dew Point: -5°   Wind: 23mph
Humidity: 46%   Direction: 240°WSW
Pressure: 30.33"   Gusts: 31mph
Location:  41.1768°N, 71.5785°W
Report Text: KBID 221655Z AUTO 24020G27KT 10SM CLR 06/M05 A3033 RMK AO1
Loading
Personal Weather Stations






























Interactive Weather Map New forecast layout! Learn more

10-Day Weather Forecast

Advertisements
Track Severe Weather on mobile